sensor_id;sensor_type;location;lat;lon;timestamp;P1;durP1;ratioP1;P2;durP2;ratioP2
13708;SDS011;54933;51.908;7.730;2023-12-20T00:00:55;1.03;;;0.40;;
13708;SDS011;54933;51.908;7.730;2023-12-20T00:03:20;0.83;;;0.57;;
13708;SDS011;54933;51.908;7.730;2023-12-20T00:05:45;0.50;;;0.50;;
13708;SDS011;54933;51.908;7.730;2023-12-20T00:08:12;1.33;;;0.50;;
13708;SDS011;54933;51.908;7.730;2023-12-20T00:10:37;1.70;;;0.40;;
13708;SDS011;54933;51.908;7.730;2023-12-20T00:13:02;1.20;;;0.57;;
13708;SDS011;54933;51.908;7.730;2023-12-20T00:15:28;0.40;;;0.40;;
13708;SDS011;54933;51.908;7.730;2023-12-20T00:17:53;0.73;;;0.30;;
13708;SDS011;54933;51.908;7.730;2023-12-20T00:20:18;0.40;;;0.40;;
13708;SDS011;54933;51.908;7.730;2023-12-20T00:22:43;1.23;;;0.50;;
13708;SDS011;54933;51.908;7.730;2023-12-20T00:25:09;0.37;;;0.37;;
13708;SDS011;54933;51.908;7.730;2023-12-20T00:27:34;0.30;;;0.30;;
13708;SDS011;54933;51.908;7.730;2023-12-20T00:29:59;0.40;;;0.40;;
13708;SDS011;54933;51.908;7.730;2023-12-20T00:32:25;0.60;;;0.60;;
13708;SDS011;54933;51.908;7.730;2023-12-20T00:34:50;2.17;;;0.40;;
13708;SDS011;54933;51.908;7.730;2023-12-20T00:37:15;0.50;;;0.50;;
13708;SDS011;54933;51.908;7.730;2023-12-20T00:39:41;0.30;;;0.30;;
13708;SDS011;54933;51.908;7.730;2023-12-20T00:42:06;0.50;;;0.50;;
13708;SDS011;54933;51.908;7.730;2023-12-20T00:44:31;0.37;;;0.37;;
13708;SDS011;54933;51.908;7.730;2023-12-20T00:46:57;0.37;;;0.37;;
13708;SDS011;54933;51.908;7.730;2023-12-20T00:49:22;0.57;;;0.50;;
13708;SDS011;54933;51.908;7.730;2023-12-20T00:51:47;2.33;;;0.47;;
13708;SDS011;54933;51.908;7.730;2023-12-20T00:54:15;0.93;;;0.50;;
13708;SDS011;54933;51.908;7.730;2023-12-20T00:56:40;0.30;;;0.30;;
13708;SDS011;54933;51.908;7.730;2023-12-20T00:59:05;0.60;;;0.60;;
13708;SDS011;54933;51.908;7.730;2023-12-20T01:01:31;0.77;;;0.50;;
13708;SDS011;54933;51.908;7.730;2023-12-20T01:03:58;0.40;;;0.40;;
13708;SDS011;54933;51.908;7.730;2023-12-20T01:06:23;0.67;;;0.30;;
13708;SDS011;54933;51.908;7.730;2023-12-20T01:08:48;0.30;;;0.30;;
13708;SDS011;54933;51.908;7.730;2023-12-20T01:11:13;0.30;;;0.30;;
13708;SDS011;54933;51.908;7.730;2023-12-20T01:13:39;0.40;;;0.40;;
13708;SDS011;54933;51.908;7.730;2023-12-20T01:16:04;0.30;;;0.30;;
13708;SDS011;54933;51.908;7.730;2023-12-20T01:18:30;0.90;;;0.50;;
13708;SDS011;54933;51.908;7.730;2023-12-20T01:20:55;0.40;;;0.40;;
13708;SDS011;54933;51.908;7.730;2023-12-20T01:23:20;0.57;;;0.40;;
13708;SDS011;54933;51.908;7.730;2023-12-20T01:25:46;0.40;;;0.40;;
13708;SDS011;54933;51.908;7.730;2023-12-20T01:28:11;0.63;;;0.50;;
13708;SDS011;54933;51.908;7.730;2023-12-20T01:30:37;1.13;;;0.20;;
13708;SDS011;54933;51.908;7.730;2023-12-20T01:33:03;0.77;;;0.50;;
13708;SDS011;54933;51.908;7.730;2023-12-20T01:35:28;0.43;;;0.40;;
13708;SDS011;54933;51.908;7.730;2023-12-20T01:37:53;0.67;;;0.40;;
13708;SDS011;54933;51.908;7.730;2023-12-20T01:40:21;0.60;;;0.53;;
13708;SDS011;54933;51.908;7.730;2023-12-20T01:42:47;0.40;;;0.30;;
13708;SDS011;54933;51.908;7.730;2023-12-20T01:45:12;0.70;;;0.57;;
13708;SDS011;54933;51.908;7.730;2023-12-20T01:47:37;0.53;;;0.53;;
13708;SDS011;54933;51.908;7.730;2023-12-20T01:50:04;1.17;;;0.50;;
13708;SDS011;54933;51.908;7.730;2023-12-20T01:52:32;0.50;;;0.40;;
13708;SDS011;54933;51.908;7.730;2023-12-20T01:54:59;0.67;;;0.40;;
13708;SDS011;54933;51.908;7.730;2023-12-20T01:57:27;1.07;;;0.23;;
13708;SDS011;54933;51.908;7.730;2023-12-20T01:59:53;0.30;;;0.30;;
13708;SDS011;54933;51.908;7.730;2023-12-20T02:02:18;0.40;;;0.40;;
13708;SDS011;54933;51.908;7.730;2023-12-20T02:04:44;0.63;;;0.30;;
13708;SDS011;54933;51.908;7.730;2023-12-20T02:07:10;0.30;;;0.30;;
13708;SDS011;54933;51.908;7.730;2023-12-20T02:09:36;0.20;;;0.20;;
13708;SDS011;54933;51.908;7.730;2023-12-20T02:12:02;0.33;;;0.30;;
13708;SDS011;54933;51.908;7.730;2023-12-20T02:14:28;0.30;;;0.30;;
13708;SDS011;54933;51.908;7.730;2023-12-20T02:16:53;0.93;;;0.40;;
13708;SDS011;54933;51.908;7.730;2023-12-20T02:19:19;0.50;;;0.50;;
13708;SDS011;54933;51.908;7.730;2023-12-20T02:21:44;0.60;;;0.30;;
13708;SDS011;54933;51.908;7.730;2023-12-20T02:24:10;0.40;;;0.30;;
13708;SDS011;54933;51.908;7.730;2023-12-20T02:26:35;0.30;;;0.30;;
13708;SDS011;54933;51.908;7.730;2023-12-20T02:29:00;0.30;;;0.30;;
13708;SDS011;54933;51.908;7.730;2023-12-20T02:31:27;0.30;;;0.17;;
13708;SDS011;54933;51.908;7.730;2023-12-20T02:33:52;0.77;;;0.40;;
13708;SDS011;54933;51.908;7.730;2023-12-20T02:36:17;0.20;;;0.20;;
13708;SDS011;54933;51.908;7.730;2023-12-20T02:38:43;0.20;;;0.20;;
13708;SDS011;54933;51.908;7.730;2023-12-20T02:41:08;1.03;;;0.30;;
13708;SDS011;54933;51.908;7.730;2023-12-20T02:43:33;0.27;;;0.27;;
13708;SDS011;54933;51.908;7.730;2023-12-20T02:45:58;0.47;;;0.40;;
13708;SDS011;54933;51.908;7.730;2023-12-20T02:48:24;0.67;;;0.20;;
13708;SDS011;54933;51.908;7.730;2023-12-20T02:50:49;0.30;;;0.30;;
13708;SDS011;54933;51.908;7.730;2023-12-20T02:53:14;0.40;;;0.40;;
13708;SDS011;54933;51.908;7.730;2023-12-20T02:55:40;0.40;;;0.40;;
13708;SDS011;54933;51.908;7.730;2023-12-20T02:58:05;0.33;;;0.33;;
13708;SDS011;54933;51.908;7.730;2023-12-20T03:00:30;0.30;;;0.30;;
13708;SDS011;54933;51.908;7.730;2023-12-20T03:02:55;0.70;;;0.40;;
13708;SDS011;54933;51.908;7.730;2023-12-20T03:05:21;0.43;;;0.30;;
13708;SDS011;54933;51.908;7.730;2023-12-20T03:07:46;0.47;;;0.47;;
13708;SDS011;54933;51.908;7.730;2023-12-20T03:10:11;0.40;;;0.40;;
13708;SDS011;54933;51.908;7.730;2023-12-20T03:12:36;0.30;;;0.30;;
13708;SDS011;54933;51.908;7.730;2023-12-20T03:15:02;0.40;;;0.40;;
13708;SDS011;54933;51.908;7.730;2023-12-20T03:17:27;0.40;;;0.23;;
13708;SDS011;54933;51.908;7.730;2023-12-20T03:19:52;0.37;;;0.30;;
13708;SDS011;54933;51.908;7.730;2023-12-20T03:22:17;0.30;;;0.30;;
13708;SDS011;54933;51.908;7.730;2023-12-20T03:24:43;0.23;;;0.23;;
13708;SDS011;54933;51.908;7.730;2023-12-20T03:27:08;0.27;;;0.27;;
13708;SDS011;54933;51.908;7.730;2023-12-20T03:29:33;0.50;;;0.40;;
13708;SDS011;54933;51.908;7.730;2023-12-20T03:31:58;0.37;;;0.30;;
13708;SDS011;54933;51.908;7.730;2023-12-20T03:34:24;0.40;;;0.40;;
13708;SDS011;54933;51.908;7.730;2023-12-20T03:36:49;0.30;;;0.30;;
13708;SDS011;54933;51.908;7.730;2023-12-20T03:39:14;0.20;;;0.20;;
13708;SDS011;54933;51.908;7.730;2023-12-20T03:41:39;0.30;;;0.30;;
13708;SDS011;54933;51.908;7.730;2023-12-20T03:44:05;0.57;;;0.40;;
13708;SDS011;54933;51.908;7.730;2023-12-20T03:46:30;0.27;;;0.27;;
13708;SDS011;54933;51.908;7.730;2023-12-20T03:48:56;2.40;;;0.37;;
13708;SDS011;54933;51.908;7.730;2023-12-20T03:51:21;0.37;;;0.37;;
13708;SDS011;54933;51.908;7.730;2023-12-20T03:53:47;0.40;;;0.40;;
13708;SDS011;54933;51.908;7.730;2023-12-20T03:56:12;0.20;;;0.20;;
13708;SDS011;54933;51.908;7.730;2023-12-20T03:58:37;0.20;;;0.20;;
13708;SDS011;54933;51.908;7.730;2023-12-20T04:01:02;0.40;;;0.30;;
13708;SDS011;54933;51.908;7.730;2023-12-20T04:03:28;0.73;;;0.40;;
13708;SDS011;54933;51.908;7.730;2023-12-20T04:05:53;0.40;;;0.20;;
13708;SDS011;54933;51.908;7.730;2023-12-20T04:08:18;0.37;;;0.30;;
13708;SDS011;54933;51.908;7.730;2023-12-20T04:10:45;0.30;;;0.30;;
13708;SDS011;54933;51.908;7.730;2023-12-20T04:13:10;0.53;;;0.47;;
13708;SDS011;54933;51.908;7.730;2023-12-20T04:15:35;0.40;;;0.20;;
13708;SDS011;54933;51.908;7.730;2023-12-20T04:18:00;0.30;;;0.30;;
13708;SDS011;54933;51.908;7.730;2023-12-20T04:20:26;0.40;;;0.40;;
13708;SDS011;54933;51.908;7.730;2023-12-20T04:22:51;0.20;;;0.20;;
13708;SDS011;54933;51.908;7.730;2023-12-20T04:25:16;0.30;;;0.30;;
13708;SDS011;54933;51.908;7.730;2023-12-20T04:27:41;0.40;;;0.40;;
13708;SDS011;54933;51.908;7.730;2023-12-20T04:30:07;0.50;;;0.50;;
13708;SDS011;54933;51.908;7.730;2023-12-20T04:32:32;0.40;;;0.40;;
13708;SDS011;54933;51.908;7.730;2023-12-20T04:34:58;0.23;;;0.23;;
13708;SDS011;54933;51.908;7.730;2023-12-20T04:37:23;0.27;;;0.20;;
13708;SDS011;54933;51.908;7.730;2023-12-20T04:39:48;0.30;;;0.30;;
13708;SDS011;54933;51.908;7.730;2023-12-20T04:42:14;0.63;;;0.40;;
13708;SDS011;54933;51.908;7.730;2023-12-20T04:44:39;1.53;;;0.30;;
13708;SDS011;54933;51.908;7.730;2023-12-20T04:47:04;0.53;;;0.50;;
13708;SDS011;54933;51.908;7.730;2023-12-20T04:49:30;0.20;;;0.20;;
13708;SDS011;54933;51.908;7.730;2023-12-20T04:51:55;0.20;;;0.20;;
13708;SDS011;54933;51.908;7.730;2023-12-20T04:54:21;0.20;;;0.20;;
13708;SDS011;54933;51.908;7.730;2023-12-20T04:56:46;0.30;;;0.30;;
13708;SDS011;54933;51.908;7.730;2023-12-20T04:59:12;0.30;;;0.30;;
13708;SDS011;54933;51.908;7.730;2023-12-20T05:01:38;0.30;;;0.30;;
13708;SDS011;54933;51.908;7.730;2023-12-20T05:04:03;0.73;;;0.30;;
13708;SDS011;54933;51.908;7.730;2023-12-20T05:06:28;0.30;;;0.30;;
13708;SDS011;54933;51.908;7.730;2023-12-20T05:08:54;0.50;;;0.30;;
13708;SDS011;54933;51.908;7.730;2023-12-20T05:11:19;0.37;;;0.30;;
13708;SDS011;54933;51.908;7.730;2023-12-20T05:13:44;0.30;;;0.30;;
13708;SDS011;54933;51.908;7.730;2023-12-20T05:16:09;0.87;;;0.50;;
13708;SDS011;54933;51.908;7.730;2023-12-20T05:18:35;0.27;;;0.17;;
13708;SDS011;54933;51.908;7.730;2023-12-20T05:21:00;0.53;;;0.50;;
13708;SDS011;54933;51.908;7.730;2023-12-20T05:23:26;0.70;;;0.50;;
13708;SDS011;54933;51.908;7.730;2023-12-20T05:25:51;0.83;;;0.60;;
13708;SDS011;54933;51.908;7.730;2023-12-20T05:28:16;0.53;;;0.37;;
13708;SDS011;54933;51.908;7.730;2023-12-20T05:30:42;0.23;;;0.23;;
13708;SDS011;54933;51.908;7.730;2023-12-20T05:33:07;0.20;;;0.20;;
13708;SDS011;54933;51.908;7.730;2023-12-20T05:35:32;0.30;;;0.20;;
13708;SDS011;54933;51.908;7.730;2023-12-20T05:37:58;0.43;;;0.40;;
13708;SDS011;54933;51.908;7.730;2023-12-20T05:40:23;1.07;;;0.40;;
13708;SDS011;54933;51.908;7.730;2023-12-20T05:42:48;0.93;;;0.50;;
13708;SDS011;54933;51.908;7.730;2023-12-20T05:45:14;0.57;;;0.50;;
13708;SDS011;54933;51.908;7.730;2023-12-20T05:47:39;0.87;;;0.40;;
13708;SDS011;54933;51.908;7.730;2023-12-20T05:50:05;0.50;;;0.50;;
13708;SDS011;54933;51.908;7.730;2023-12-20T05:52:30;0.30;;;0.30;;
13708;SDS011;54933;51.908;7.730;2023-12-20T05:54:57;1.97;;;0.30;;
13708;SDS011;54933;51.908;7.730;2023-12-20T05:57:25;0.60;;;0.47;;
13708;SDS011;54933;51.908;7.730;2023-12-20T05:59:51;0.60;;;0.37;;
13708;SDS011;54933;51.908;7.730;2023-12-20T06:02:16;0.40;;;0.40;;
13708;SDS011;54933;51.908;7.730;2023-12-20T06:04:42;0.33;;;0.33;;
13708;SDS011;54933;51.908;7.730;2023-12-20T06:07:08;0.30;;;0.30;;
13708;SDS011;54933;51.908;7.730;2023-12-20T06:09:33;0.40;;;0.40;;
13708;SDS011;54933;51.908;7.730;2023-12-20T06:11:58;0.33;;;0.30;;
13708;SDS011;54933;51.908;7.730;2023-12-20T06:14:24;0.40;;;0.40;;
13708;SDS011;54933;51.908;7.730;2023-12-20T06:16:49;0.40;;;0.40;;
13708;SDS011;54933;51.908;7.730;2023-12-20T06:19:14;1.80;;;0.80;;
13708;SDS011;54933;51.908;7.730;2023-12-20T06:21:40;0.30;;;0.30;;
13708;SDS011;54933;51.908;7.730;2023-12-20T06:24:05;1.67;;;0.50;;
13708;SDS011;54933;51.908;7.730;2023-12-20T06:26:30;2.97;;;0.50;;
13708;SDS011;54933;51.908;7.730;2023-12-20T06:28:55;0.83;;;0.50;;
13708;SDS011;54933;51.908;7.730;2023-12-20T06:31:21;1.30;;;0.50;;
13708;SDS011;54933;51.908;7.730;2023-12-20T06:33:46;2.87;;;0.80;;
13708;SDS011;54933;51.908;7.730;2023-12-20T06:36:12;54.80;;;5.57;;
13708;SDS011;54933;51.908;7.730;2023-12-20T06:38:40;39.17;;;5.07;;
13708;SDS011;54933;51.908;7.730;2023-12-20T06:41:07;21.77;;;3.57;;
13708;SDS011;54933;51.908;7.730;2023-12-20T06:43:32;22.33;;;3.17;;
13708;SDS011;54933;51.908;7.730;2023-12-20T06:45:58;26.60;;;2.93;;
13708;SDS011;54933;51.908;7.730;2023-12-20T06:48:25;26.77;;;4.67;;
13708;SDS011;54933;51.908;7.730;2023-12-20T06:50:50;29.10;;;2.40;;
13708;SDS011;54933;51.908;7.730;2023-12-20T06:53:15;34.63;;;2.57;;
13708;SDS011;54933;51.908;7.730;2023-12-20T06:55:41;59.33;;;5.37;;
13708;SDS011;54933;51.908;7.730;2023-12-20T06:58:07;32.57;;;3.83;;
13708;SDS011;54933;51.908;7.730;2023-12-20T07:00:32;30.63;;;3.10;;
13708;SDS011;54933;51.908;7.730;2023-12-20T07:02:58;34.67;;;3.73;;
13708;SDS011;54933;51.908;7.730;2023-12-20T07:05:24;27.33;;;2.53;;
13708;SDS011;54933;51.908;7.730;2023-12-20T07:07:49;22.73;;;2.73;;
13708;SDS011;54933;51.908;7.730;2023-12-20T07:10:14;19.07;;;2.53;;
13708;SDS011;54933;51.908;7.730;2023-12-20T07:12:39;20.37;;;3.20;;
13708;SDS011;54933;51.908;7.730;2023-12-20T07:15:05;17.20;;;2.47;;
13708;SDS011;54933;51.908;7.730;2023-12-20T07:17:32;19.97;;;2.10;;
13708;SDS011;54933;51.908;7.730;2023-12-20T07:19:58;12.37;;;2.13;;
13708;SDS011;54933;51.908;7.730;2023-12-20T07:22:23;18.33;;;1.93;;
13708;SDS011;54933;51.908;7.730;2023-12-20T07:24:48;10.13;;;2.30;;
13708;SDS011;54933;51.908;7.730;2023-12-20T07:27:14;11.70;;;2.30;;
13708;SDS011;54933;51.908;7.730;2023-12-20T07:29:40;19.20;;;2.33;;
13708;SDS011;54933;51.908;7.730;2023-12-20T07:32:05;14.43;;;2.00;;
13708;SDS011;54933;51.908;7.730;2023-12-20T07:34:31;11.70;;;1.73;;
13708;SDS011;54933;51.908;7.730;2023-12-20T07:36:56;18.07;;;2.33;;
13708;SDS011;54933;51.908;7.730;2023-12-20T07:39:21;11.23;;;1.67;;
13708;SDS011;54933;51.908;7.730;2023-12-20T07:41:46;9.23;;;1.93;;
13708;SDS011;54933;51.908;7.730;2023-12-20T07:44:11;11.00;;;1.97;;
13708;SDS011;54933;51.908;7.730;2023-12-20T07:46:37;11.20;;;3.07;;
13708;SDS011;54933;51.908;7.730;2023-12-20T07:49:03;13.90;;;1.70;;
13708;SDS011;54933;51.908;7.730;2023-12-20T07:51:29;10.17;;;1.30;;
13708;SDS011;54933;51.908;7.730;2023-12-20T07:53:55;6.83;;;1.53;;
13708;SDS011;54933;51.908;7.730;2023-12-20T07:56:20;10.80;;;1.67;;
13708;SDS011;54933;51.908;7.730;2023-12-20T07:58:45;6.73;;;1.50;;
13708;SDS011;54933;51.908;7.730;2023-12-20T08:01:11;7.17;;;1.43;;
13708;SDS011;54933;51.908;7.730;2023-12-20T08:03:37;7.13;;;1.30;;
13708;SDS011;54933;51.908;7.730;2023-12-20T08:06:03;7.63;;;1.43;;
13708;SDS011;54933;51.908;7.730;2023-12-20T08:08:28;5.20;;;1.20;;
13708;SDS011;54933;51.908;7.730;2023-12-20T08:10:54;7.50;;;1.50;;
13708;SDS011;54933;51.908;7.730;2023-12-20T08:13:19;3.83;;;1.53;;
13708;SDS011;54933;51.908;7.730;2023-12-20T08:15:44;2.70;;;1.17;;
13708;SDS011;54933;51.908;7.730;2023-12-20T08:18:10;4.57;;;1.00;;
13708;SDS011;54933;51.908;7.730;2023-12-20T08:20:35;3.83;;;1.30;;
13708;SDS011;54933;51.908;7.730;2023-12-20T08:23:00;4.63;;;1.70;;
13708;SDS011;54933;51.908;7.730;2023-12-20T08:25:25;5.90;;;1.30;;
13708;SDS011;54933;51.908;7.730;2023-12-20T08:27:51;2.93;;;1.00;;
13708;SDS011;54933;51.908;7.730;2023-12-20T08:30:16;5.03;;;1.37;;
13708;SDS011;54933;51.908;7.730;2023-12-20T08:32:46;3.13;;;1.33;;
13708;SDS011;54933;51.908;7.730;2023-12-20T08:35:14;5.93;;;1.27;;
13708;SDS011;54933;51.908;7.730;2023-12-20T08:37:40;4.27;;;1.13;;
13708;SDS011;54933;51.908;7.730;2023-12-20T08:40:05;3.13;;;1.33;;
13708;SDS011;54933;51.908;7.730;2023-12-20T08:42:31;2.30;;;0.90;;
13708;SDS011;54933;51.908;7.730;2023-12-20T08:44:57;5.90;;;1.20;;
13708;SDS011;54933;51.908;7.730;2023-12-20T08:47:23;5.17;;;1.17;;
13708;SDS011;54933;51.908;7.730;2023-12-20T08:49:48;3.23;;;0.90;;
13708;SDS011;54933;51.908;7.730;2023-12-20T08:52:14;7.83;;;1.30;;
13708;SDS011;54933;51.908;7.730;2023-12-20T08:54:39;5.37;;;1.10;;
13708;SDS011;54933;51.908;7.730;2023-12-20T08:57:04;3.03;;;1.00;;
13708;SDS011;54933;51.908;7.730;2023-12-20T08:59:31;3.27;;;1.20;;
13708;SDS011;54933;51.908;7.730;2023-12-20T09:01:57;3.53;;;1.43;;
13708;SDS011;54933;51.908;7.730;2023-12-20T09:04:22;5.57;;;1.17;;
13708;SDS011;54933;51.908;7.730;2023-12-20T09:06:47;4.47;;;1.00;;
13708;SDS011;54933;51.908;7.730;2023-12-20T09:09:12;3.07;;;1.10;;
13708;SDS011;54933;51.908;7.730;2023-12-20T09:11:40;1.07;;;0.80;;
13708;SDS011;54933;51.908;7.730;2023-12-20T09:14:06;2.57;;;1.10;;
13708;SDS011;54933;51.908;7.730;2023-12-20T09:16:32;2.77;;;1.10;;
13708;SDS011;54933;51.908;7.730;2023-12-20T09:18:57;2.20;;;0.80;;
13708;SDS011;54933;51.908;7.730;2023-12-20T09:21:22;3.00;;;0.93;;
13708;SDS011;54933;51.908;7.730;2023-12-20T09:23:48;2.70;;;1.07;;
13708;SDS011;54933;51.908;7.730;2023-12-20T09:26:13;1.27;;;0.87;;
13708;SDS011;54933;51.908;7.730;2023-12-20T09:28:39;2.10;;;1.00;;
13708;SDS011;54933;51.908;7.730;2023-12-20T09:31:05;2.13;;;1.17;;
13708;SDS011;54933;51.908;7.730;2023-12-20T09:33:31;2.43;;;0.90;;
13708;SDS011;54933;51.908;7.730;2023-12-20T09:35:56;2.03;;;0.90;;
13708;SDS011;54933;51.908;7.730;2023-12-20T09:38:22;1.27;;;0.87;;
13708;SDS011;54933;51.908;7.730;2023-12-20T09:40:47;1.30;;;0.87;;
13708;SDS011;54933;51.908;7.730;2023-12-20T09:43:16;13.47;;;1.10;;
13708;SDS011;54933;51.908;7.730;2023-12-20T09:45:45;2.23;;;0.70;;
13708;SDS011;54933;51.908;7.730;2023-12-20T09:48:11;4.63;;;0.80;;
13708;SDS011;54933;51.908;7.730;2023-12-20T09:50:39;2.40;;;0.93;;
13708;SDS011;54933;51.908;7.730;2023-12-20T09:53:05;1.43;;;0.97;;
13708;SDS011;54933;51.908;7.730;2023-12-20T09:55:34;1.30;;;0.70;;
13708;SDS011;54933;51.908;7.730;2023-12-20T09:58:01;1.03;;;0.60;;
13708;SDS011;54933;51.908;7.730;2023-12-20T10:00:26;1.00;;;0.80;;
13708;SDS011;54933;51.908;7.730;2023-12-20T10:02:59;2.53;;;1.00;;
13708;SDS011;54933;51.908;7.730;2023-12-20T10:05:28;1.83;;;1.10;;
13708;SDS011;54933;51.908;7.730;2023-12-20T10:07:55;3.00;;;1.10;;
13708;SDS011;54933;51.908;7.730;2023-12-20T10:10:20;1.20;;;0.90;;
13708;SDS011;54933;51.908;7.730;2023-12-20T10:13:01;1.60;;;1.00;;
13708;SDS011;54933;51.908;7.730;2023-12-20T10:15:27;1.53;;;0.90;;
13708;SDS011;54933;51.908;7.730;2023-12-20T10:17:52;1.27;;;0.70;;
13708;SDS011;54933;51.908;7.730;2023-12-20T10:20:19;2.73;;;1.10;;
13708;SDS011;54933;51.908;7.730;2023-12-20T10:22:44;1.17;;;0.80;;
13708;SDS011;54933;51.908;7.730;2023-12-20T10:25:11;1.60;;;0.80;;
13708;SDS011;54933;51.908;7.730;2023-12-20T10:27:36;1.53;;;0.70;;
13708;SDS011;54933;51.908;7.730;2023-12-20T10:30:02;2.03;;;0.70;;
13708;SDS011;54933;51.908;7.730;2023-12-20T10:32:27;0.70;;;0.70;;
13708;SDS011;54933;51.908;7.730;2023-12-20T10:34:55;2.83;;;1.33;;
13708;SDS011;54933;51.908;7.730;2023-12-20T10:37:21;1.17;;;0.80;;
13708;SDS011;54933;51.908;7.730;2023-12-20T10:39:51;1.47;;;0.90;;
13708;SDS011;54933;51.908;7.730;2023-12-20T10:42:21;2.73;;;1.00;;
13708;SDS011;54933;51.908;7.730;2023-12-20T10:44:47;0.90;;;0.77;;
13708;SDS011;54933;51.908;7.730;2023-12-20T10:47:13;2.73;;;1.00;;
13708;SDS011;54933;51.908;7.730;2023-12-20T10:49:38;1.90;;;0.70;;
13708;SDS011;54933;51.908;7.730;2023-12-20T10:52:04;1.80;;;0.70;;
13708;SDS011;54933;51.908;7.730;2023-12-20T10:54:31;0.80;;;0.80;;
13708;SDS011;54933;51.908;7.730;2023-12-20T10:56:57;1.43;;;0.80;;
13708;SDS011;54933;51.908;7.730;2023-12-20T10:59:23;2.80;;;0.77;;
13708;SDS011;54933;51.908;7.730;2023-12-20T11:01:50;1.10;;;0.80;;
13708;SDS011;54933;51.908;7.730;2023-12-20T11:04:17;1.43;;;0.80;;
13708;SDS011;54933;51.908;7.730;2023-12-20T11:09:40;0.90;;;0.60;;
13708;SDS011;54933;51.908;7.730;2023-12-20T11:12:10;1.77;;;0.80;;
13708;SDS011;54933;51.908;7.730;2023-12-20T11:17:16;3.60;;;1.13;;
13708;SDS011;54933;51.908;7.730;2023-12-20T11:22:24;1.27;;;0.70;;
13708;SDS011;54933;51.908;7.730;2023-12-20T11:24:50;1.97;;;0.80;;
13708;SDS011;54933;51.908;7.730;2023-12-20T11:27:18;1.20;;;0.80;;
13708;SDS011;54933;51.908;7.730;2023-12-20T11:29:51;1.47;;;1.00;;
13708;SDS011;54933;51.908;7.730;2023-12-20T11:35:01;0.87;;;0.70;;
13708;SDS011;54933;51.908;7.730;2023-12-20T11:37:41;1.30;;;0.83;;
13708;SDS011;54933;51.908;7.730;2023-12-20T11:40:13;2.00;;;0.87;;
13708;SDS011;54933;51.908;7.730;2023-12-20T11:42:41;0.77;;;0.57;;
13708;SDS011;54933;51.908;7.730;2023-12-20T11:45:14;1.10;;;0.80;;
13708;SDS011;54933;51.908;7.730;2023-12-20T11:47:42;1.93;;;0.80;;
13708;SDS011;54933;51.908;7.730;2023-12-20T11:50:10;0.90;;;0.63;;
13708;SDS011;54933;51.908;7.730;2023-12-20T11:52:35;2.40;;;0.60;;
13708;SDS011;54933;51.908;7.730;2023-12-20T11:55:01;1.00;;;0.83;;
13708;SDS011;54933;51.908;7.730;2023-12-20T11:57:26;0.60;;;0.60;;
13708;SDS011;54933;51.908;7.730;2023-12-20T11:59:51;0.77;;;0.60;;
13708;SDS011;54933;51.908;7.730;2023-12-20T12:02:17;1.47;;;0.87;;
13708;SDS011;54933;51.908;7.730;2023-12-20T12:04:42;0.90;;;0.90;;
13708;SDS011;54933;51.908;7.730;2023-12-20T12:07:07;1.27;;;0.70;;
13708;SDS011;54933;51.908;7.730;2023-12-20T12:09:33;0.93;;;0.70;;
13708;SDS011;54933;51.908;7.730;2023-12-20T12:11:59;1.17;;;0.70;;
13708;SDS011;54933;51.908;7.730;2023-12-20T12:14:24;1.07;;;0.70;;
13708;SDS011;54933;51.908;7.730;2023-12-20T12:16:50;1.60;;;0.53;;
13708;SDS011;54933;51.908;7.730;2023-12-20T12:19:25;1.27;;;0.70;;
13708;SDS011;54933;51.908;7.730;2023-12-20T12:22:03;1.17;;;1.00;;
13708;SDS011;54933;51.908;7.730;2023-12-20T12:24:32;0.80;;;0.80;;
13708;SDS011;54933;51.908;7.730;2023-12-20T12:26:57;1.20;;;0.80;;
13708;SDS011;54933;51.908;7.730;2023-12-20T12:29:23;2.47;;;0.87;;
13708;SDS011;54933;51.908;7.730;2023-12-20T12:31:49;1.33;;;0.70;;
13708;SDS011;54933;51.908;7.730;2023-12-20T12:34:15;1.77;;;0.70;;
13708;SDS011;54933;51.908;7.730;2023-12-20T12:36:41;1.70;;;1.10;;
13708;SDS011;54933;51.908;7.730;2023-12-20T12:39:06;2.47;;;0.77;;
13708;SDS011;54933;51.908;7.730;2023-12-20T12:41:31;1.13;;;0.73;;
13708;SDS011;54933;51.908;7.730;2023-12-20T12:43:57;2.67;;;0.73;;
13708;SDS011;54933;51.908;7.730;2023-12-20T12:46:22;0.83;;;0.70;;
13708;SDS011;54933;51.908;7.730;2023-12-20T12:48:47;0.57;;;0.57;;
13708;SDS011;54933;51.908;7.730;2023-12-20T12:51:14;1.47;;;1.00;;
13708;SDS011;54933;51.908;7.730;2023-12-20T12:53:39;0.83;;;0.67;;
13708;SDS011;54933;51.908;7.730;2023-12-20T12:56:05;0.73;;;0.60;;
13708;SDS011;54933;51.908;7.730;2023-12-20T12:58:31;2.00;;;0.60;;
13708;SDS011;54933;51.908;7.730;2023-12-20T13:00:56;0.83;;;0.60;;
13708;SDS011;54933;51.908;7.730;2023-12-20T13:03:22;0.60;;;0.57;;
13708;SDS011;54933;51.908;7.730;2023-12-20T13:05:47;1.60;;;0.77;;
13708;SDS011;54933;51.908;7.730;2023-12-20T13:08:13;1.47;;;0.67;;
13708;SDS011;54933;51.908;7.730;2023-12-20T13:10:39;1.53;;;0.60;;
13708;SDS011;54933;51.908;7.730;2023-12-20T13:13:04;1.37;;;0.90;;
13708;SDS011;54933;51.908;7.730;2023-12-20T13:15:29;6.60;;;1.10;;
13708;SDS011;54933;51.908;7.730;2023-12-20T13:17:55;0.83;;;0.60;;
13708;SDS011;54933;51.908;7.730;2023-12-20T13:20:21;0.93;;;0.70;;
13708;SDS011;54933;51.908;7.730;2023-12-20T13:22:47;2.43;;;0.93;;
13708;SDS011;54933;51.908;7.730;2023-12-20T13:25:12;2.80;;;1.30;;
13708;SDS011;54933;51.908;7.730;2023-12-20T13:27:38;0.93;;;0.90;;
13708;SDS011;54933;51.908;7.730;2023-12-20T13:30:03;0.87;;;0.80;;
13708;SDS011;54933;51.908;7.730;2023-12-20T13:32:30;4.00;;;1.17;;
13708;SDS011;54933;51.908;7.730;2023-12-20T13:34:55;1.73;;;0.90;;
13708;SDS011;54933;51.908;7.730;2023-12-20T13:37:21;1.87;;;0.83;;
13708;SDS011;54933;51.908;7.730;2023-12-20T13:39:46;1.60;;;0.90;;
13708;SDS011;54933;51.908;7.730;2023-12-20T13:42:11;2.97;;;1.23;;
13708;SDS011;54933;51.908;7.730;2023-12-20T13:44:36;1.40;;;1.03;;
13708;SDS011;54933;51.908;7.730;2023-12-20T13:47:02;1.43;;;0.77;;
13708;SDS011;54933;51.908;7.730;2023-12-20T13:49:28;0.90;;;0.70;;
13708;SDS011;54933;51.908;7.730;2023-12-20T13:51:53;1.63;;;1.00;;
13708;SDS011;54933;51.908;7.730;2023-12-20T13:54:20;1.00;;;0.80;;
13708;SDS011;54933;51.908;7.730;2023-12-20T13:56:47;2.50;;;0.83;;
13708;SDS011;54933;51.908;7.730;2023-12-20T13:59:12;2.57;;;0.93;;
13708;SDS011;54933;51.908;7.730;2023-12-20T14:01:38;1.33;;;0.90;;
13708;SDS011;54933;51.908;7.730;2023-12-20T14:04:03;0.80;;;0.80;;
13708;SDS011;54933;51.908;7.730;2023-12-20T14:06:28;1.43;;;0.63;;
13708;SDS011;54933;51.908;7.730;2023-12-20T14:08:54;1.37;;;0.87;;
13708;SDS011;54933;51.908;7.730;2023-12-20T14:11:19;2.00;;;0.80;;
13708;SDS011;54933;51.908;7.730;2023-12-20T14:13:45;2.20;;;1.00;;
13708;SDS011;54933;51.908;7.730;2023-12-20T14:16:10;1.70;;;1.10;;
13708;SDS011;54933;51.908;7.730;2023-12-20T14:18:35;1.73;;;0.77;;
13708;SDS011;54933;51.908;7.730;2023-12-20T14:21:01;2.00;;;1.27;;
13708;SDS011;54933;51.908;7.730;2023-12-20T14:23:26;23.77;;;2.40;;
13708;SDS011;54933;51.908;7.730;2023-12-20T14:25:51;15.33;;;1.80;;
13708;SDS011;54933;51.908;7.730;2023-12-20T14:28:17;11.93;;;1.70;;
13708;SDS011;54933;51.908;7.730;2023-12-20T14:30:42;12.20;;;1.60;;
13708;SDS011;54933;51.908;7.730;2023-12-20T14:33:07;8.77;;;1.70;;
13708;SDS011;54933;51.908;7.730;2023-12-20T14:35:33;11.30;;;1.57;;
13708;SDS011;54933;51.908;7.730;2023-12-20T14:37:58;11.20;;;1.63;;
13708;SDS011;54933;51.908;7.730;2023-12-20T14:40:23;7.57;;;1.63;;
13708;SDS011;54933;51.908;7.730;2023-12-20T14:42:49;4.00;;;1.30;;
13708;SDS011;54933;51.908;7.730;2023-12-20T14:45:15;7.90;;;1.20;;
13708;SDS011;54933;51.908;7.730;2023-12-20T14:47:41;4.30;;;1.17;;